Terminal Aerodrome Forecast
Issued by NWS

Home | Current Version | Previous Version | Graphics & Text | Print | Product List | Glossary On
Versions: 1 2 3 4 5 6 7 8 9 10 11 12 13 14 15 16 17 18 19
000
FTUS43 KICT 301100
TAFCNU
TAF
KCNU 301120Z 3012/3112 04005KT P6SM VCSH SCT025 BKN050
      TEMPO 3012/3016 5SM SHRA BKN025
     FM301600 13007KT P6SM VCTS SCT015 BKN035CB
     FM310100 VRB05KT P6SM VCSH SCT020 BKN050
     FM310900 VRB03KT 2SM BR FEW009 SCT100=

USA.gov is the U.S. government's official web portal to all federal, state and local government web resources and services.